TOP > 外国特許検索

外国特許検索

Display results per page Option
Patent state
Country

Clear

Hits 4747 results

No. Application number
Gazette No
Country
Title
Release Date
Update Date
Information Provider
4501 201816155444 20190044082 アメリカ合衆国 Liquid organic semiconductor material 2019/05/09 2021/04/27 科学技術振興機構(JST)
4502 2020JP002552 WO 2020153485 世界知的所有権機関(WIPO) SOLID ELECTROLYTE, ELECTROLYTE LAYER AND BATTERY 2021/04/27 2021/04/27 東京工業大学
4503 2020JP029239 WO 2021024906 世界知的所有権機関(WIPO) HYDROPHILIC-HYDROPHOBIC COPOLYMER CARRYING SHORT-CHAIN FATTY ACID ESTER 2021/04/27 2021/04/27 筑波大学
4504 2020JP027655 WO 2021024742 世界知的所有権機関(WIPO) CYTOTOXICITY ASSAY METHOD 2021/04/27 2021/04/27 筑波大学
4505 2020JP028981 WO 2021020421 世界知的所有権機関(WIPO) CELL DEATH INHIBITOR AND CELL DEATH INHIBITION METHOD 新技術説明会 2021/04/27 2021/04/27 筑波大学
4506 2020JP016434 WO 2020213604 世界知的所有権機関(WIPO) NOVEL β-AMYLASE AND METHOD FOR UTILIZATION AND PRODUCTION THEREOF 2021/04/27 2021/04/27 大阪府立大学
4507 2020JP024945 WO 2021002267 世界知的所有権機関(WIPO) ODMR TEMPERATURE MEASUREMENT METHOD 2021/04/27 2021/04/27 大阪市立大学
4508 2020JP027504 WO 2021015070 世界知的所有権機関(WIPO) PIXEL, SOLID-STATE IMAGE PICKUP DEVICE, AND METHOD OF MANUFACTURING PIXEL 2021/04/27 2021/04/27 静岡大学
4509 2020JP031285 WO 2021033720 世界知的所有権機関(WIPO) METHOD, PROGRAM, AND SYSTEM FOR ASSISTING DETERMINATION OF NOVELTY OF TECHNOLOGY DESCRIBED IN ACADEMIC DOCUMENT 2021/04/27 2021/04/27 弘前大学
4510 2020JP029659 WO 2021033525 世界知的所有権機関(WIPO) LENS ANTENNA, RADAR DEVICE USING SAME, AND WIRELESS COMMUNICATION DEVICE 2021/04/27 2021/04/27 慶應義塾大学
4511 20067008650 100769707 大韓民国 Metal oxynitride electrode catalyst 2011/07/21 2021/04/28 科学技術振興機構(JST)
4512 20077017724 100924668 大韓民国 N-type transistor, production methods for n-type transistor sensor and n-type transistor-use channel, and production method of nanotube structure exhibiting n-type semiconductor-like characteristics 2011/07/21 2021/04/28 科学技術振興機構(JST)
4513 20087012940 101004051 大韓民国 Iron-based alloy having shape-memory property and superelasticity and method for manufacture thereof 2011/07/21 2021/04/28 科学技術振興機構(JST)
4514 20087008003 101336840 大韓民国 Lewis acid catalyzed halogenation of activated carbon atoms 2011/07/21 2021/04/28 科学技術振興機構(JST)
4515 20067002916 100730292 大韓民国 Actuator element and production method therefor 2011/07/21 2021/04/28 科学技術振興機構(JST)
4516 20117004218 101154494 大韓民国 Highly efficient group-III nitride based light emitting diodes via fabrication of structures on an N-face surface 2011/07/21 2021/04/28 科学技術振興機構(JST)
4517 20077023104 101145755 大韓民国 Technique for the growth of planar semi-polar gallium nitride 実績あり 2011/07/21 2021/04/28 科学技術振興機構(JST)
4518 20077030909 101351396 大韓民国 Technique for the growth and fabrication of semipolar (Ga,Al,In,B)N thin films, heterostructures, and devices 実績あり 2011/07/21 2021/04/28 科学技術振興機構(JST)
4519 20087008498 101347848 大韓民国 Method for enhancing growth of semi-polar (Al,In,Ga,B)N via metalorganic chemical vapor deposition 実績あり 2011/07/21 2021/04/28 科学技術振興機構(JST)
4520 20087020383 101510461 大韓民国 Method for improved growth of semipolar (Al,In,Ga,B)N 実績あり 2011/07/21 2021/04/28 科学技術振興機構(JST)
4521 20067004025 100746863 大韓民国 Field-effect transistor, single electron transistor, and sensor using same 2011/07/22 2021/04/28 科学技術振興機構(JST)
4522 20057011014 101086155 大韓民国 Growth of planar, non-polar gallium nitride by hydride vapor phase epitaxy 実績あり 2011/07/22 2021/04/28 科学技術振興機構(JST)
4523 2020JP023063 WO 2021005955 世界知的所有権機関(WIPO) MEDICAL IMAGE GUIDANCE MARKER 2021/04/28 2021/04/28 京都府立医科大学
4524 2020JP028438 WO 2021020273 世界知的所有権機関(WIPO) DESCRIPTION GENERATING DEVICE, DESCRIPTION GENERATING METHOD, AND PROGRAM 2021/04/28 2021/04/28 横浜国立大学
4525 2020JP030913 WO 2021033650 世界知的所有権機関(WIPO) LIQUID CRYSTAL ELEMENT AND LIQUID CRYSTAL ELEMENT MANUFACTURING METHOD 2021/04/28 2021/04/28 立命館大学
4526 2020JP023694 WO 2021014836 世界知的所有権機関(WIPO) FLUORORESIN MODIFIER, AND MODIFIED FLUORORESIN MOLDED ARTICLE AND METHOD FOR PRODUCING SAME 新技術説明会 2021/04/28 2021/04/28 福岡大学
4527 2020JP027921 WO 2021010481 世界知的所有権機関(WIPO) ADHESIVE PROTEIN 新技術説明会 2021/04/28 2021/04/28 東海国立大学機構
4528 2020JP027922 WO 2021010482 世界知的所有権機関(WIPO) SEPARATED PEPTIDE 新技術説明会 2021/04/28 2021/04/28 東海国立大学機構
4529 2020JP029446 WO 2021020564 世界知的所有権機関(WIPO) GD2 BINDING MOLECULE 2021/04/28 2021/04/28 三重大学
4530 2020JP029437 WO 2021020559 世界知的所有権機関(WIPO) ANTIGEN RECEPTOR 2021/04/28 2021/04/28 三重大学
4531 2020JP028497 WO 2021015249 世界知的所有権機関(WIPO) ESTIMATOR LEARNING DEVICE, ESTIMATOR LEARNING METHOD, AND ESTIMATOR LEARNING PROGRAM 2021/04/28 2021/04/28 埼玉医科大学
4532 20067013748 101156146 大韓民国 Highly efficient group-iii nitride based light emitting diodes via fabrication of structures on an n-face surface 実績あり 2011/07/22 2021/05/06 科学技術振興機構(JST)
4533 20107020836 101426985 大韓民国 Microbial fuel cell 2011/07/22 2021/05/06 科学技術振興機構(JST)
4534 20067002013 100801544 大韓民国 Field Effect Transistor and Method for Manufacturing Same 新技術説明会 2011/07/22 2021/05/06 科学技術振興機構(JST)
4535 20067019694 100867662 大韓民国 Magnetoresistive element, tunnel barrier layer and method of manufacturing the magnetoresistive element 2011/07/22 2021/05/06 科学技術振興機構(JST)
4536 20077008452 100898218 大韓民国 Ceramic Particle Group and Method for Production Thereof and Use Thereof 実績あり 2011/07/22 2021/05/06 科学技術振興機構(JST)
4537 20097026510 101170063 大韓民国 Transparent electroconductive thin film and process for producing the transparent electroconductive thin film 2011/07/22 2021/05/06 科学技術振興機構(JST)
4538 20107017478 101217995 大韓民国 Morphing music generating device and morphing music generating program 新技術説明会 2011/07/22 2021/05/06 科学技術振興機構(JST)
4539 20067019099 100811969 大韓民国 Sugar chain ligand composite and method of analyzing protein with the ligand composite 実績あり 2011/07/22 2021/05/06 科学技術振興機構(JST)
4540 20097020833 101486095 大韓民国 Catalyst for reforming oxygen-containing hydrocarbon, and hydrogen or synthetic gas production method and fuel cell system using the catalyst 2011/07/25 2021/05/06 科学技術振興機構(JST)
4541 20077027691 101329907 大韓民国 Transdermal absorption accelerator 実績あり 2011/07/25 2021/05/06 科学技術振興機構(JST)
4542 20077002893 100797173 大韓民国 Metal oxide electrode catalyst 2011/07/27 2021/05/06 科学技術振興機構(JST)
4543 20077002022 100883715 大韓民国 Discrete signal processing device and processing method 2011/07/27 2021/05/06 科学技術振興機構(JST)
4544 2020JP029770 WO 2021025005 世界知的所有権機関(WIPO) HOLLOW COLLAGEN GEL 2021/05/06 2021/05/06 佐賀大学
4545 2020JP027085 WO 2021006343 世界知的所有権機関(WIPO) COMMUNICATION SYSTEM, REMOTE CONTROL MACHINE SYSTEM, AND COMMUNICATION METHOD 2021/05/06 2021/05/06 九州工業大学
4546 2020JP032053 WO 2021039800 世界知的所有権機関(WIPO) METHOD FOR PREPARING ENANTIOMER OF SULFOXIDE COMPOUND, AND SYSTEM FOR PREPARING ENANTIOMER 新技術説明会 2021/05/06 2021/05/06 東京理科大学
4547 2020JP032761 WO 2021040023 世界知的所有権機関(WIPO) PHOTOTHERMAL CONVERSION ELEMENT, PRODUCTION METHOD FOR SAME, PHOTOTHERMAL POWER GENERATION DEVICE, AND MICRO-OBJECT AGGREGATION SYSTEM 2021/05/06 2021/05/06 大阪府立大学
4548 2020JP032760 WO 2021040022 世界知的所有権機関(WIPO) CELL-PENETRATING PEPTIDE AND USE THEREOF 2021/05/06 2021/05/06 大阪府立大学
4549 2020JP032758 WO 2021040021 世界知的所有権機関(WIPO) DETECTION METHOD FOR SUBSTANCE TO BE DETECTED AND DETECTION SYSTEM FOR SUBSTANCE TO BE DETECTED 2021/05/06 2021/05/06 大阪府立大学
4550 2020JP031456 WO 2021039584 世界知的所有権機関(WIPO) LAYERED DOUBLE HYDROXIDE CRYSTAL, ANION ADSORBENT, AND LAYERED DOUBLE HYDROXIDE CRYSTAL PRODUCTION METHOD 2021/05/06 2021/05/06 信州大学
4551 2020JP025987 WO 2021039112 世界知的所有権機関(WIPO) SUBMERGED PLASMA GENERATION DEVICE 2021/05/06 2021/05/06 佐賀大学
4552 2020JP031521 WO 2021039600 世界知的所有権機関(WIPO) TACTILE SENSOR ELEMENT, TACTILE SENSOR, TRIAXIAL TACTILE SENSOR, AND TACTILE SENSOR ELEMENT MANUFACTURING METHOD 2021/05/06 2021/05/06 弘前大学
4553 2020JP032248 WO 2021039868 世界知的所有権機関(WIPO) ROTATING ELECTRICAL MACHINE 2021/05/06 2021/05/06 工学院大学
4554 2020JP032606 WO 2021039965 世界知的所有権機関(WIPO) METHOD FOR PRODUCING PARVALBUMIN-POSITIVE NERVE CELLS, CELL, AND DIFFERENTIATION INDUCER 2021/05/06 2021/05/06 慶應義塾大学
4555 2020JP032028 WO 2021039789 世界知的所有権機関(WIPO) REAGENT FOR MEASURING OXYGEN CONCENTRATION IN CELL AND TISSUE 2021/05/06 2021/05/06 群馬大学
4556 2020JP029441 WO 2021020561 世界知的所有権機関(WIPO) PRIMER, APPARATUS FOR PRODUCING DOUBLE-STRANDED DNA USING SAME, AND METHOD FOR PRODUCING DOUBLE-STRANDED DNA 2021/05/06 2021/05/06 科学技術振興機構(JST)
4557 2020JP029442 WO 2021020562 世界知的所有権機関(WIPO) PRIMER, DEVICE FOR PRODUCING DOUBLE-STRANDED DNA USING SAME, AND METHOD FOR PRODUCING DOUBLE-STRANDED DNA 2021/05/06 2021/05/06 科学技術振興機構(JST)
4558 2020JP021963 WO 2021024598 世界知的所有権機関(WIPO) NON-VOLATILE MEMORY DEVICE AND METHOD FOR OPERATING SAME 2021/05/06 2021/05/06 科学技術振興機構(JST)
4559 20077002874 100746867 大韓民国 Field-effect transistor, single electron transistor, and sensor using same 2011/07/27 2021/05/07 科学技術振興機構(JST)
4560 20027011610 100517455 大韓民国 Intermetallic compound superconductors and alloy superconductors and methods of making them 実績あり 2011/07/28 2021/05/07 科学技術振興機構(JST)
4561 20117007416 101145753 大韓民国 Technique for the growth of planar semi-polar gallium nitride 実績あり 2011/08/02 2021/05/07 科学技術振興機構(JST)
4562 20127010536 101499203 大韓民国 Growth of planar non-polar (1-100) m-plane gallium nitride with metalorganic chemical vapor deposition (MOCVD) 実績あり 2012/11/22 2021/05/07 科学技術振興機構(JST)
4563 20127010588 101307303 大韓民国 Transparent electroconductive thin film and process for producing the transparent electroconductive thin film 2012/11/22 2021/05/07 科学技術振興機構(JST)
4564 20157010816 102111820 大韓民国 Dynamic network biomarker detection device detection method and detection program 2017/03/14 2021/05/07 科学技術振興機構(JST)
4565 20157022898 101704662 大韓民国 Digital filter for image processing, and character string tilt illusion generating device 2017/03/14 2021/05/07 科学技術振興機構(JST)
4566 20167001466 101770705 大韓民国 Nucleic acid-encapsulating polymer micelle complex and method for producing same 2017/09/12 2021/05/07 科学技術振興機構(JST)
4567 20147016942 101680154 大韓民国 Planar patch clamp device, electrodes for said device and cell ion channel current measurement method 2017/09/12 2021/05/07 科学技術振興機構(JST)
4568 20157006609 102027808 大韓民国 Formation and use of neuronal network and neuron seeding device 2017/09/12 2021/05/07 科学技術振興機構(JST)
4569 20167005553 101842069 大韓民国 Planar Patch Clamp Device and Planar Patch Clamp System 2017/09/12 2021/05/07 科学技術振興機構(JST)
4570 20117021519 101351447 大韓民国 Transportation of Micrometer-Sized Object and Extraction of Mechanical Work by Constant Electric Field 2017/09/12 2021/05/07 科学技術振興機構(JST)
4571 2020JP027690 WO 2021044743 世界知的所有権機関(WIPO) MOLECULAR MEMORY AND METHOD FOR MANUFACTURING MOLECULAR MEMORY 2021/05/07 2021/05/07 広島大学
4572 2020JP034928 WO 2021054329 世界知的所有権機関(WIPO) METHOD FOR USING ADSORBENT, AND ADSORBENT SET 2021/05/07 2021/05/07 広島大学
4573 2020JP035609 WO 2021054472 世界知的所有権機関(WIPO) MAGNETIC FIELD GENERATING DEVICE, AND ROTATING ELECTRICAL MACHINE 2021/05/07 2021/05/07 工学院大学
4574 2020JP034978 WO 2021054338 世界知的所有権機関(WIPO) CURRENT INTERRUPTION DEVICE AND CURRENT INTERRUPTION METHOD 新技術説明会 2021/05/07 2021/05/07 埼玉大学
4575 2020JP034073 WO 2021049515 世界知的所有権機関(WIPO) COMPLEX AND PRODUCTION METHOD FOR COMPLEX 2021/05/07 2021/05/07 日大NUBIC
4576 2020JP035047 WO 2021054351 世界知的所有権機関(WIPO) MEMBRANE PERMEATION ENHANCER AND METHOD FOR ENHANCING MEMBRANE PERMEATION 2021/05/07 2021/05/07 東京理科大学
4577 2020JP032967 WO 2021045022 世界知的所有権機関(WIPO) THERMAL RADIATION LENS 2021/05/07 2021/05/07 東京農工大学
4578 2020JP034538 WO 2021049633 世界知的所有権機関(WIPO) DRUG FOR CURATIVE THERAPY OF INTRACTABLE HEREDITARY RENAL ALPORT SYNDROME 2021/05/07 2021/05/07 熊本大学
4579 2020JP035517 WO 2021054449 世界知的所有権機関(WIPO) LBM, CPC, OPC, PRODUCTION AND QUALITY CONTROL METHODS THEREFOR, KIT, GRAFT MATERIAL, AND DISEASE MODEL 2021/05/07 2021/05/07 岡山大学
4580 201980024094 111971649 中華人民共和国 Arithmetic operation device and arithmetic operation system 新技術説明会 2021/05/07 2021/05/07 理化学研究所
4581 2020JP034976 WO 2021060089 世界知的所有権機関(WIPO) LIQUID FLOW FORMATION METHOD AND OBJECT MOVING METHOD USING SAME 2021/05/07 2021/05/07 同志社大学
4582 2020JP036853 WO 2021065893 世界知的所有権機関(WIPO) TETRALIN DERIVATIVE OR PHARMACEUTICALLY ACCEPTABLE ACID ADDITION SALT THEREOF 2021/05/07 2021/05/07 筑波大学
4583 2020JP036760 WO 2021065846 世界知的所有権機関(WIPO) ANTIBODY BINDING TO ANTI-HIV-1 V3 ANTIBODY 1C10(0.5γ), ANTIGEN-BINDING FRAGMENT THEREOF AND APPLICATION OF SAME 2021/05/10 2021/05/10 熊本大学
4584 2020JP035537 WO 2021065578 世界知的所有権機関(WIPO) LIGHT MODULATION ELEMENT 2021/05/10 2021/05/10 東京工業大学
4585 2019JP027172 WO 2020013191 世界知的所有権機関(WIPO) HIGH-PURITY CHALCOGENIDE MATERIAL AND METHOD FOR PRODUCING SAME 新技術説明会 2020/05/14 2021/05/12 京都大学
4586 2019JP018829 WO 2019221035 世界知的所有権機関(WIPO) POWER CALCULATION DEVICE, POWER TRANSMISSION SYSTEM, AND POWER PACKET DATA STRUCTURE 2020/05/15 2021/05/12 京都大学
4587 2017JP031453 WO 2018043674 世界知的所有権機関(WIPO) COMPOSITION FOR ACTIVATING NEUROGENESIS 2018/11/16 2021/05/20 京都大学
4588 2021JP016266 - 世界知的所有権機関(WIPO) 溶接構造体及びこれに用いられるFe-Mn-Cr-Ni-Si系合金 (Patent unpublished to the public) 新技術説明会 2021/05/31 2021/05/31 物質・材料研究機構
4589 2012JP066971 WO2013008681 世界知的所有権機関(WIPO) PHARMACEUTICAL COMPOSITION FOR PREVENTING OR TREATING FIBROSIS 新技術説明会 2013/07/04 2021/06/08 東北大学
4590 202117275013 - アメリカ合衆国 ENDOTOXIN DETECTION DEVICE AND ENDOTOXIN DETECTION METHOD (Patent unpublished to the public) 新技術説明会 2021/06/08 2021/06/08 東北大学
4591 202080005025 - 中華人民共和国 ENDOTOXIN DETECTION DEVICE AND ENDOTOXIN DETECTION METHOD (Patent unpublished to the public) 新技術説明会 2021/06/08 2021/06/08 東北大学
4592 202016641300 20200386619 アメリカ合衆国 TRANSMISSION GUIDED-MODE RESONANT GRATING INTEGRATED SPECTROSCOPY DEVICE AND METHOD FOR MANUFACTURING SAME 新技術説明会 2021/06/08 2021/06/08 東北大学
4593 2021JP003143 - 世界知的所有権機関(WIPO) 抗ピロリ菌活性を有するコレステロール類似物質 (Patent unpublished to the public) 新技術説明会 2021/06/11 2021/06/11 信州大学
4594 20167028290 102260122 大韓民国 Activator for mesenchymal stem cells activated mesenchymal stem cells and method for producing same 2018/10/30 2021/07/26 札幌医科大学
4595 201515503609 20170239730 アメリカ合衆国 Processing device for metal materials 2018/11/05 2021/07/26 産総研
4596 08846826 2213747 欧州特許庁(EPO) Method for producing membrane protein 実績あり 2019/08/26 2021/07/26 理化学研究所
4597 2020JP042477 WO 2021095863 世界知的所有権機関(WIPO) FRACTURE TOUGHNESS TESTING DEVICE AND FRACTURE TOUGHNESS TESTING METHOD 新技術説明会 2021/04/01 2021/07/26 早稲田大学
4598 2020JP040738 WO 2021085580 世界知的所有権機関(WIPO) POLYNUCLEOTIDE AND USE FOR SAME 新技術説明会 2021/04/07 2021/07/26 理化学研究所
4599 2020JP048075 WO 2021132296 世界知的所有権機関(WIPO) AEROGEL AND METHOD FOR PRODUCING SAME 新技術説明会 2021/04/07 2021/07/26 理化学研究所
4600 2020JP045298 WO 2021112236 世界知的所有権機関(WIPO) METHOD FOR PREDICTING ONSET OF CHORIOAMNIONITIS 新技術説明会 2021/04/19 2021/07/26 福岡大学

(46/48 page)

PAGE TOP